Natchez, MS (39120)

2:11 PM CDT on March 27, 2015 (GMT -0500)
Downtown, "Cherokee" | | Change Station
CLOSE
Current Station
Personal Weather Station
Location: Natchez, MS
Elevation: 236 ft
Nearby Weather Stations
Active Advisory: Flood Warning

Elev 236 ft 31.56 °N, 91.40 °W | Updated 2 seconds ago

Clear
Clear
65.1 °F
Feels Like 65.1 °F
N
1.8
Wind Variable Wind from South
Gusts 2.5 mph

Today
High -- | Low -- °F
--% Chance of Precip.
Yesterday
High -- | Low -- °F
Precip. -- in
7:00 AM 7:21 PM
First Quarter, 55% visible
Pressure 30.07 in
Visibility 10.0 miles
Clouds Clear
Dew Point 39 °F
Humidity 38%
Rainfall 0.00 in
Snow Depth Not available.
UV 5.0 out of 12
Pollen 9.80 out of 12
Air Quality Not available.
Flu Activity Not available.
METAR KHEZ 271855Z AUTO 28012KT 10SM CLR 16/03 A3007 RMK AO1

More Conditions Fewer Conditions

Pressure 30.07 in
Visibility 10.0 miles
Clouds Clear
Dew Point 39 °F
Humidity 38%
Rainfall 0.00 in
Snow Depth Not available.
UV 5.0 out of 12
Pollen 9.80 out of 12
Air Quality Not available.
Flu Activity Not available.
METAR KHEZ 271855Z AUTO 28012KT 10SM CLR 16/03 A3007 RMK AO1

More Conditions Fewer Conditions

10-Day Weather Forecast

Almanac

Astronomy

Mar. 27, 2015 Rise Set
Actual Time
Civil Twilight
Nautical Twilight
Astronomical Twilight
Moon
Length of Visible Light
Length of Day
Tomorrow will be .
, % of the Moon is Illuminated

Today's Extremes

State Highs State Lows

Community

WunderPhotos

Upload Photos

1,808,791 photos uploaded!

WunderBlogs® & News

Nearby

Air Quality

  Air Quality AQ Index Pollutant
Not available.

Snow Depth

Station Depth Elevation

Earthquake Activity

City Distance Mag. Time & Date
Minimum magnitude displayed is 2.5.

Coastal Water Temperatures

Place Temperature

Stations

Nearby Weather Stations

Station Location Temp. Windchill Dew Point Humidity Wind Precip. Elev Updated Type
                   
Flood Warning
Statement as of 10:16 AM CDT on March 27, 2015


The Flood Warning continues for
the Mississippi River at Natchez
* until further notice.
* At 10:00 am Friday the stage was 49.0 feet.
* Minor flooding is occurring and minor flooding is forecast.
* Flood stage is 48.0 feet.
* Forecast... the river will continue rising to near 49.5 feet by
Monday morning.



              Flood observed forecast 7 am crest
location stg stg day time Sat sun Mon crest time date

Lower Mississippi River
Natchez 48 49.0 Fri 10 am 49.2 49.4 49.5 49.5 07 am 03/30




Lat... Lon 3101 9170 3130 9167 3193 9129 3187 9114
      3130 9147 3100 9154